Time;durP1;ratioP1;P1;durP2;ratioP2;P2;SDS_P1;SDS_P2;PMS_P1;PMS_P2;Temp;Humidity;BMP_temperature;BMP_pressure;BME280_temperature;BME280_humidity;BME280_pressure;Samples;Min_cycle;Max_cycle;Signal;HPM_P1;HPM_P2
2021/06/01 00:02:06;;;;;;;2.55;1.60;;;21.00;49.50;;;;;;5052077;28;20041;-59
2021/06/01 00:04:33;;;;;;;2.17;1.50;;;21.00;49.50;;;;;;5040154;28;20041;-58
2021/06/01 00:07:00;;;;;;;2.38;1.73;;;21.00;49.50;;;;;;5045638;28;20041;-58
2021/06/01 00:09:28;;;;;;;2.70;1.60;;;21.00;49.50;;;;;;5053978;28;20045;-59
2021/06/01 00:11:55;;;;;;;2.03;1.45;;;21.00;49.50;;;;;;5054514;28;20454;-58
2021/06/01 00:14:23;;;;;;;1.33;1.23;;;21.00;49.50;;;;;;5054184;28;20084;-58
2021/06/01 00:16:51;;;;;;;2.65;1.33;;;21.00;49.50;;;;;;5036418;28;20103;-58
2021/06/01 00:19:19;;;;;;;5.38;1.92;;;21.00;49.50;;;;;;5036802;28;20382;-57
2021/06/01 00:21:47;;;;;;;3.17;1.60;;;21.00;49.50;;;;;;5055089;28;20497;-57
2021/06/01 00:24:15;;;;;;;2.17;1.38;;;21.00;49.60;;;;;;5053890;28;20080;-58
2021/06/01 00:26:43;;;;;;;2.50;1.60;;;21.00;49.50;;;;;;5055125;28;20472;-58
2021/06/01 00:29:11;;;;;;;2.42;1.52;;;21.00;49.50;;;;;;5067702;28;20053;-58
2021/06/01 00:31:39;;;;;;;1.77;1.50;;;21.00;49.50;;;;;;5054877;28;20053;-58
2021/06/01 00:34:07;;;;;;;2.20;1.50;;;21.00;49.60;;;;;;5056077;28;20052;-58
2021/06/01 00:36:34;;;;;;;3.40;1.30;;;21.00;49.60;;;;;;5053835;28;20053;-58
2021/06/01 00:39:03;;;;;;;1.85;1.52;;;21.00;49.50;;;;;;5052595;28;20502;-58
2021/06/01 00:41:31;;;;;;;2.45;1.48;;;21.00;49.50;;;;;;5051571;28;20087;-58
2021/06/01 00:43:58;;;;;;;2.20;1.50;;;21.00;49.50;;;;;;5054535;28;20076;-58
2021/06/01 00:46:26;;;;;;;1.58;1.33;;;21.00;49.50;;;;;;5053297;28;20051;-58
2021/06/01 00:48:53;;;;;;;2.22;1.42;;;21.00;49.50;;;;;;5062373;28;20056;-58
2021/06/01 00:51:20;;;;;;;2.45;1.27;;;21.00;49.50;;;;;;5063613;28;20053;-58
2021/06/01 00:53:47;;;;;;;5.55;1.40;;;21.00;49.50;;;;;;5054151;28;20097;-58
2021/06/01 00:56:14;;;;;;;2.33;1.70;;;21.00;49.50;;;;;;5053551;28;20045;-58
2021/06/01 00:58:42;;;;;;;2.05;1.35;;;21.00;49.50;;;;;;5052848;28;20075;-59
2021/06/01 01:03:40;;;;;;;1.50;1.30;;;21.00;49.50;;;;;;5054026;28;20041;-58
2021/06/01 01:06:32;;;;;;;4.22;1.58;;;20.90;49.50;;;;;;5051370;28;20094;-57
2021/06/01 01:09:08;;;;;;;2.20;1.27;;;20.90;49.50;;;;;;5053307;28;20057;-58
2021/06/01 01:12:17;;;;;;;2.47;1.65;;;20.90;49.40;;;;;;5054332;28;20098;-57
2021/06/01 01:14:50;;;;;;;1.55;1.30;;;20.90;49.40;;;;;;5010912;28;20104;-59
2021/06/01 01:17:21;;;;;;;2.08;1.17;;;20.90;49.50;;;;;;5012294;28;20061;-58
2021/06/01 01:20:07;;;;;;;1.95;1.58;;;20.90;49.40;;;;;;5012004;28;20081;-58
2021/06/01 01:22:37;;;;;;;2.30;1.40;;;20.90;49.40;;;;;;5010918;28;20042;-58
2021/06/01 01:25:25;;;;;;;2.55;1.40;;;20.90;49.40;;;;;;5013031;28;20050;-59
2021/06/01 01:28:13;;;;;;;2.10;1.40;;;20.90;49.40;;;;;;5010957;28;20061;-59
2021/06/01 01:30:49;;;;;;;1.85;1.60;;;20.90;49.40;;;;;;5010962;28;20061;-58
2021/06/01 01:33:20;;;;;;;1.77;1.33;;;20.90;49.50;;;;;;4995754;28;20054;-59
2021/06/01 01:35:52;;;;;;;2.38;1.60;;;20.90;49.40;;;;;;5009586;28;20050;-58
2021/06/01 01:38:23;;;;;;;2.17;1.50;;;20.90;49.50;;;;;;5011856;28;20104;-59
2021/06/01 01:40:53;;;;;;;2.70;1.48;;;20.90;49.40;;;;;;5010567;28;20436;-58
2021/06/01 01:43:24;;;;;;;1.55;1.13;;;20.90;49.50;;;;;;5011925;28;20046;-58
2021/06/01 01:46:01;;;;;;;2.13;1.30;;;20.90;49.50;;;;;;5022893;28;20052;-58
2021/06/01 01:51:16;;;;;;;3.22;1.85;;;20.90;49.50;;;;;;5052170;28;20045;-57
2021/06/01 01:53:47;;;;;;;2.35;1.70;;;20.90;49.50;;;;;;5050833;28;20045;-56
2021/06/01 01:56:17;;;;;;;2.55;1.35;;;20.90;49.50;;;;;;5054628;28;20397;-58
2021/06/01 01:58:47;;;;;;;1.90;1.50;;;20.90;49.50;;;;;;5039465;28;20053;-59
2021/06/01 02:01:15;;;;;;;1.73;1.40;;;20.90;49.50;;;;;;5036020;28;20481;-58
2021/06/01 02:03:44;;;;;;;2.15;1.55;;;20.90;49.50;;;;;;5047429;28;20119;-57
2021/06/01 02:06:12;;;;;;;2.67;1.60;;;20.90;49.50;;;;;;5040028;28;20119;-58
2021/06/01 02:08:43;;;;;;;1.95;1.35;;;20.90;49.50;;;;;;5036587;28;20494;-57
2021/06/01 02:11:11;;;;;;;3.47;1.40;;;20.90;49.50;;;;;;5045117;28;20099;-58
2021/06/01 02:14:04;;;;;;;2.20;1.52;;;20.90;49.50;;;;;;5053056;28;20045;-58
2021/06/01 02:16:38;;;;;;;2.05;1.42;;;20.90;49.50;;;;;;5068484;28;20509;-59
2021/06/01 02:19:05;;;;;;;;;;;20.80;49.40;;;;;;5052346;28;20508;-58
2021/06/01 02:24:16;;;;;;;1.52;1.23;;;20.80;49.40;;;;;;5051863;28;20060;-59
2021/06/01 02:27:12;;;;;;;2.40;1.50;;;20.80;49.40;;;;;;5052156;28;20045;-58
2021/06/01 02:30:09;;;;;;;2.10;1.40;;;20.80;49.40;;;;;;5051852;28;20084;-58
2021/06/01 02:32:49;;;;;;;1.67;1.25;;;20.80;49.40;;;;;;5050936;28;20057;-56
2021/06/01 02:35:38;;;;;;;1.92;1.45;;;20.90;49.50;;;;;;5052214;28;20045;-58
2021/06/01 02:38:08;;;;;;;1.70;1.38;;;20.80;49.40;;;;;;5034103;28;20054;-58
2021/06/01 02:40:38;;;;;;;2.03;1.35;;;20.80;49.40;;;;;;5052093;28;20045;-58
2021/06/01 02:43:08;;;;;;;1.60;1.33;;;20.80;49.50;;;;;;5052311;28;20096;-59
2021/06/01 02:45:41;;;;;;;1.23;1.13;;;20.90;49.50;;;;;;5051427;28;20091;-58
2021/06/01 02:48:12;;;;;;;1.85;1.30;;;20.90;49.50;;;;;;5050872;28;20098;-58
2021/06/01 02:50:41;;;;;;;2.00;1.58;;;20.80;49.40;;;;;;5033630;28;20111;-58
2021/06/01 02:53:10;;;;;;;1.73;1.42;;;20.80;49.40;;;;;;5049780;28;20111;-58
2021/06/01 02:55:38;;;;;;;1.92;1.52;;;20.80;49.40;;;;;;5036487;28;20056;-58
2021/06/01 02:58:07;;;;;;;3.25;1.50;;;20.80;49.40;;;;;;5051881;28;20045;-58
2021/06/01 03:00:37;;;;;;;5.47;1.67;;;20.90;49.40;;;;;;5053625;28;20050;-58
2021/06/01 03:03:06;;;;;;;1.70;1.30;;;20.80;49.30;;;;;;5050678;28;20045;-59
2021/06/01 03:05:34;;;;;;;1.80;1.30;;;20.80;49.30;;;;;;5038605;28;20424;-58
2021/06/01 03:08:28;;;;;;;2.30;1.38;;;20.80;49.30;;;;;;5051398;28;20063;-59
2021/06/01 03:11:01;;;;;;;1.48;1.27;;;20.80;49.30;;;;;;5051416;28;20048;-58
2021/06/01 03:13:29;;;;;;;1.65;1.20;;;20.80;49.30;;;;;;5037433;28;20478;-58
2021/06/01 03:15:57;;;;;;;2.78;1.58;;;20.80;49.30;;;;;;5051402;28;20049;-57
2021/06/01 03:18:25;;;;;;;1.40;1.30;;;20.80;49.30;;;;;;5049827;28;20057;-59
2021/06/01 03:20:52;;;;;;;2.13;1.52;;;20.80;49.30;;;;;;5052448;28;20053;-58
2021/06/01 03:23:20;;;;;;;1.60;1.20;;;20.80;49.30;;;;;;5050526;28;20041;-58
2021/06/01 03:25:48;;;;;;;1.92;1.35;;;20.90;49.40;;;;;;5053824;28;20103;-58
2021/06/01 03:28:16;;;;;;;1.73;1.38;;;20.80;49.30;;;;;;5056021;28;20459;-58
2021/06/01 03:30:43;;;;;;;2.55;1.17;;;20.80;49.30;;;;;;5055085;28;20115;-58
2021/06/01 03:33:10;;;;;;;2.22;1.67;;;20.80;49.30;;;;;;5053920;28;20110;-58
2021/06/01 03:35:38;;;;;;;2.00;1.52;;;20.80;49.30;;;;;;5055674;28;20148;-58
2021/06/01 03:38:06;;;;;;;1.67;1.30;;;20.80;49.20;;;;;;5054672;28;20048;-58
2021/06/01 03:40:33;;;;;;;1.63;1.33;;;20.80;49.20;;;;;;5049276;28;20046;-58
2021/06/01 03:43:00;;;;;;;3.40;1.35;;;20.80;49.20;;;;;;5043096;28;20118;-58
2021/06/01 03:45:28;;;;;;;3.90;1.27;;;20.80;49.20;;;;;;5053422;28;20041;-58
2021/06/01 03:47:55;;;;;;;6.57;1.73;;;20.80;49.20;;;;;;5052933;28;20052;-59
2021/06/01 03:50:23;;;;;;;3.55;1.30;;;20.80;49.10;;;;;;5053139;28;20128;-58
2021/06/01 03:52:51;;;;;;;1.40;1.00;;;20.90;49.20;;;;;;5038903;28;20106;-58
2021/06/01 03:55:20;;;;;;;2.40;1.50;;;20.90;49.20;;;;;;5054138;28;20106;-57
2021/06/01 03:57:48;;;;;;;2.60;1.38;;;20.90;49.10;;;;;;5037821;28;20132;-58
2021/06/01 04:00:22;;;;;;;1.65;1.40;;;20.90;49.10;;;;;;5036931;28;20045;-58
2021/06/01 04:02:49;;;;;;;1.85;1.40;;;20.90;49.10;;;;;;5054562;28;20060;-58
2021/06/01 04:05:23;;;;;;;2.00;1.40;;;20.90;49.10;;;;;;5055067;28;20232;-58
2021/06/01 04:07:51;;;;;;;2.78;1.25;;;20.90;49.10;;;;;;5040875;28;20041;-59
2021/06/01 04:10:18;;;;;;;1.70;1.30;;;20.90;49.10;;;;;;5036856;28;20045;-56
2021/06/01 04:12:46;;;;;;;1.90;1.42;;;20.90;49.00;;;;;;5054500;28;20057;-59
2021/06/01 04:15:14;;;;;;;1.52;1.30;;;20.90;49.00;;;;;;5053197;28;20481;-58
2021/06/01 04:17:41;;;;;;;1.35;1.17;;;20.90;49.00;;;;;;5038510;28;20057;-58
2021/06/01 04:20:09;;;;;;;4.20;1.38;;;20.90;49.00;;;;;;5067403;28;20052;-58
2021/06/01 04:22:37;;;;;;;2.58;1.60;;;20.90;48.90;;;;;;5053658;28;20099;-58
2021/06/01 04:25:07;;;;;;;1.83;1.30;;;20.90;48.90;;;;;;5055096;28;20072;-58
2021/06/01 04:27:35;;;;;;;2.05;1.40;;;21.00;49.00;;;;;;5052704;28;20103;-58
2021/06/01 04:30:06;;;;;;;2.05;1.40;;;21.00;48.90;;;;;;5041959;28;20049;-58
2021/06/01 04:32:33;;;;;;;3.08;1.25;;;21.00;48.80;;;;;;5037366;28;20089;-59
2021/06/01 04:35:01;;;;;;;2.13;1.40;;;21.10;48.70;;;;;;5047555;28;20048;-57
2021/06/01 04:37:28;;;;;;;1.50;1.30;;;21.10;48.70;;;;;;5053452;28;20089;-58
2021/06/01 04:39:56;;;;;;;1.70;1.20;;;21.10;48.50;;;;;;5053312;28;20044;-58
2021/06/01 04:42:24;;;;;;;4.13;1.15;;;21.20;48.40;;;;;;5045878;28;20041;-58
2021/06/01 04:44:51;;;;;;;2.15;1.40;;;21.20;48.40;;;;;;5043667;28;20044;-58
2021/06/01 04:47:18;;;;;;;2.20;1.50;;;21.30;48.30;;;;;;5053715;28;20087;-58
2021/06/01 04:49:48;;;;;;;2.75;1.25;;;21.30;48.20;;;;;;5049930;28;20410;-58
2021/06/01 04:52:16;;;;;;;1.23;1.13;;;21.30;48.10;;;;;;5040968;28;20060;-59
2021/06/01 04:54:43;;;;;;;2.35;1.00;;;21.40;48.10;;;;;;5053487;28;20045;-59
2021/06/01 04:57:10;;;;;;;1.67;1.42;;;21.40;48.10;;;;;;5051954;28;20055;-56
2021/06/01 04:59:37;;;;;;;1.45;1.30;;;21.40;47.90;;;;;;5037487;28;20044;-58
2021/06/01 05:02:05;;;;;;;3.65;1.88;;;21.50;47.90;;;;;;5038749;28;20052;-58
2021/06/01 05:04:33;;;;;;;4.43;1.63;;;21.50;47.90;;;;;;5054479;28;20066;-58
2021/06/01 05:07:01;;;;;;;4.13;1.30;;;21.50;47.70;;;;;;5045466;28;20103;-57
2021/06/01 05:09:28;;;;;;;3.97;1.52;;;21.60;47.70;;;;;;5053990;28;20051;-58
2021/06/01 05:11:55;;;;;;;2.33;1.10;;;21.60;47.70;;;;;;5053432;28;20094;-59
2021/06/01 05:14:23;;;;;;;1.35;1.25;;;21.60;47.60;;;;;;5036973;28;20049;-57
2021/06/01 05:16:50;;;;;;;2.90;1.38;;;21.60;47.60;;;;;;5050845;28;20099;-58
2021/06/01 05:19:18;;;;;;;1.83;1.55;;;21.60;47.50;;;;;;5054237;28;20106;-58
2021/06/01 05:21:45;;;;;;;1.77;1.60;;;21.60;47.60;;;;;;5052436;28;20087;-58
2021/06/01 05:24:13;;;;;;;1.80;1.30;;;21.70;47.60;;;;;;5052632;28;20045;-58
2021/06/01 05:26:41;;;;;;;2.13;1.30;;;21.70;47.60;;;;;;5052854;28;20056;-59
2021/06/01 05:29:09;;;;;;;2.80;1.60;;;21.70;47.60;;;;;;5051461;28;20052;-58
2021/06/01 05:34:24;;;;;;;2.47;1.40;;;21.70;47.60;;;;;;5039961;28;20412;-59
2021/06/01 05:36:52;;;;;;;1.45;1.33;;;21.70;47.60;;;;;;5048206;28;20174;-59
2021/06/01 05:39:19;;;;;;;1.42;1.20;;;21.70;47.60;;;;;;5052435;28;20058;-58
2021/06/01 05:41:47;;;;;;;1.92;1.25;;;21.70;47.60;;;;;;5041744;28;20050;-56
2021/06/01 05:44:14;;;;;;;2.00;1.20;;;21.80;47.70;;;;;;5045867;28;20103;-59
2021/06/01 05:46:41;;;;;;;3.55;1.60;;;21.70;47.60;;;;;;5042900;28;20041;-58
2021/06/01 05:49:09;;;;;;;3.13;1.38;;;21.70;47.60;;;;;;5044818;28;20187;-59
2021/06/01 05:51:37;;;;;;;2.55;1.45;;;21.80;47.70;;;;;;5045342;28;20045;-58
2021/06/01 05:54:06;;;;;;;2.58;1.48;;;21.80;47.70;;;;;;5037211;28;20053;-58
2021/06/01 05:56:35;;;;;;;1.60;1.05;;;21.70;47.70;;;;;;5035844;28;20119;-58
2021/06/01 05:59:04;;;;;;;3.58;1.58;;;21.70;47.70;;;;;;5041401;28;20099;-58
2021/06/01 06:01:32;;;;;;;2.70;1.40;;;21.70;47.70;;;;;;5047989;28;20073;-58
2021/06/01 06:03:59;;;;;;;2.60;1.30;;;21.80;47.80;;;;;;5039879;28;20045;-58
2021/06/01 06:06:27;;;;;;;1.95;1.55;;;21.70;47.80;;;;;;5052843;28;20085;-58
2021/06/01 06:08:54;;;;;;;2.58;1.38;;;21.70;47.80;;;;;;5052122;28;20045;-58
2021/06/01 06:11:21;;;;;;;2.55;1.63;;;21.70;47.80;;;;;;5050999;28;20102;-58
2021/06/01 06:13:48;;;;;;;3.67;1.42;;;21.70;48.40;;;;;;5050780;28;20129;-58
2021/06/01 06:16:19;;;;;;;1.50;1.23;;;21.70;47.90;;;;;;5051231;28;20045;-59
2021/06/01 06:18:58;;;;;;;2.15;1.55;;;21.70;47.90;;;;;;5051305;28;20053;-58
2021/06/01 06:21:27;;;;;;;1.52;1.27;;;21.70;47.90;;;;;;5034733;28;20053;-58
2021/06/01 06:23:54;;;;;;;3.28;1.70;;;21.70;48.00;;;;;;5051370;28;20052;-58
2021/06/01 06:26:21;;;;;;;3.03;1.60;;;21.70;48.00;;;;;;5034726;28;20045;-58
2021/06/01 06:28:49;;;;;;;2.03;1.33;;;21.70;48.00;;;;;;5034784;28;20049;-58
2021/06/01 06:31:20;;;;;;;1.67;1.30;;;21.70;48.00;;;;;;5053170;28;20049;-58
2021/06/01 06:33:48;;;;;;;1.92;1.23;;;21.70;48.10;;;;;;5035579;28;20064;-58
2021/06/01 06:36:15;;;;;;;1.73;1.17;;;21.70;48.10;;;;;;5035310;28;20505;-58
2021/06/01 06:38:46;;;;;;;1.80;1.60;;;21.70;48.10;;;;;;5049945;28;20079;-58
2021/06/01 06:41:17;;;;;;;1.40;1.30;;;21.70;48.20;;;;;;5052017;28;20061;-59
2021/06/01 06:43:52;;;;;;;2.20;1.33;;;21.70;48.20;;;;;;5053142;28;20063;-58
2021/06/01 06:46:34;;;;;;;2.33;1.40;;;21.70;48.20;;;;;;5053071;28;20045;-58
2021/06/01 06:49:03;;;;;;;1.58;1.27;;;21.70;48.20;;;;;;5052623;28;20045;-59
2021/06/01 06:51:31;;;;;;;1.48;1.30;;;21.70;48.20;;;;;;5050412;28;20060;-58
2021/06/01 06:53:58;;;;;;;1.85;1.00;;;21.70;48.20;;;;;;5052878;28;20048;-58
2021/06/01 06:56:30;;;;;;;1.65;1.38;;;21.70;48.20;;;;;;5052529;28;20045;-58
2021/06/01 06:59:00;;;;;;;1.67;1.23;;;21.70;48.30;;;;;;5068175;28;20424;-58
2021/06/01 07:01:28;;;;;;;2.10;1.30;;;21.70;48.30;;;;;;5056557;28;20048;-58
2021/06/01 07:03:56;;;;;;;2.28;1.25;;;21.70;48.30;;;;;;5055024;28;20045;-58
2021/06/01 07:06:24;;;;;;;2.00;1.25;;;21.70;48.30;;;;;;5047301;28;20053;-58
2021/06/01 07:08:51;;;;;;;1.95;1.42;;;21.70;48.30;;;;;;5051277;28;20057;-58
2021/06/01 07:11:18;;;;;;;1.80;1.30;;;21.70;48.30;;;;;;5047199;28;20560;-59
2021/06/01 07:13:55;;;;;;;3.08;1.20;;;21.70;48.30;;;;;;5046860;28;20041;-59
2021/06/01 07:16:22;;;;;;;1.40;1.20;;;21.70;48.90;;;;;;5055391;28;20049;-58
2021/06/01 07:18:49;;;;;;;1.42;1.10;;;21.70;48.30;;;;;;5056285;28;20076;-58
2021/06/01 07:21:17;;;;;;;1.42;1.13;;;21.80;48.40;;;;;;5060839;28;20048;-58
2021/06/01 07:23:44;;;;;;;1.90;1.70;;;21.80;48.40;;;;;;5066863;28;20049;-58
2021/06/01 07:26:11;;;;;;;2.05;1.35;;;21.80;48.40;;;;;;5054876;28;20041;-58
2021/06/01 07:28:39;;;;;;;1.77;1.25;;;21.80;48.40;;;;;;5055007;28;20041;-58
2021/06/01 07:31:07;;;;;;;1.65;1.23;;;21.80;48.40;;;;;;5055011;28;20049;-59
2021/06/01 07:33:35;;;;;;;1.83;0.95;;;21.80;48.40;;;;;;5055644;28;20045;-58
2021/06/01 07:36:04;;;;;;;2.50;1.52;;;21.80;48.30;;;;;;5053231;28;20087;-58
2021/06/01 07:38:34;;;;;;;2.67;1.20;;;21.80;48.40;;;;;;5037262;28;20053;-59
2021/06/01 07:41:07;;;;;;;1.77;1.20;;;21.80;48.40;;;;;;5038630;28;20393;-58
2021/06/01 07:43:35;;;;;;;1.75;1.23;;;21.80;48.40;;;;;;5054575;28;20037;-58
2021/06/01 07:46:03;;;;;;;1.95;1.30;;;21.80;48.40;;;;;;5037652;28;24577;-58
2021/06/01 07:48:37;;;;;;;1.75;1.27;;;21.80;48.40;;;;;;5055285;28;20095;-58
2021/06/01 07:51:10;;;;;;;2.58;1.75;;;21.90;48.40;;;;;;5054383;28;20045;-58
2021/06/01 07:53:41;;;;;;;1.33;1.23;;;21.80;48.40;;;;;;5053506;28;20114;-57
2021/06/01 07:56:10;;;;;;;1.27;1.05;;;21.80;48.40;;;;;;5053627;28;20489;-54
2021/06/01 07:58:37;;;;;;;2.15;1.27;;;21.80;48.40;;;;;;5035920;28;20057;-58
2021/06/01 08:01:05;;;;;;;3.00;1.48;;;21.80;48.40;;;;;;5054188;28;20071;-58
2021/06/01 08:03:32;;;;;;;1.60;1.17;;;21.80;48.40;;;;;;5039136;28;20057;-58
2021/06/01 08:05:59;;;;;;;2.65;1.33;;;21.80;48.40;;;;;;5062421;28;20052;-58
2021/06/01 08:08:26;;;;;;;1.50;1.20;;;21.80;48.40;;;;;;5048973;28;20052;-59
2021/06/01 08:10:53;;;;;;;2.83;1.63;;;21.80;48.40;;;;;;5053269;28;20049;-58
2021/06/01 08:13:21;;;;;;;1.92;1.33;;;21.80;48.40;;;;;;5042890;28;20050;-59
2021/06/01 08:15:51;;;;;;;3.80;1.50;;;21.90;48.50;;;;;;5049696;28;20048;-59
2021/06/01 08:18:20;;;;;;;2.13;1.48;;;21.90;48.50;;;;;;5053952;28;20095;-59
2021/06/01 08:21:07;;;;;;;1.83;1.40;;;21.90;48.50;;;;;;5052355;28;20132;-58
2021/06/01 08:23:35;;;;;;;2.35;1.40;;;21.90;48.50;;;;;;5041388;28;20045;-58
2021/06/01 08:26:04;;;;;;;2.03;1.60;;;21.90;48.50;;;;;;5037715;28;20045;-59
2021/06/01 08:28:32;;;;;;;2.33;1.58;;;21.90;48.50;;;;;;5049390;28;20405;-58
2021/06/01 08:31:01;;;;;;;2.33;1.50;;;21.90;48.50;;;;;;5054578;28;20049;-59
2021/06/01 08:33:29;;;;;;;1.75;1.27;;;21.90;48.50;;;;;;5045205;28;20498;-58
2021/06/01 08:35:58;;;;;;;1.58;1.38;;;21.90;48.50;;;;;;5038681;28;20061;-58
2021/06/01 08:38:25;;;;;;;1.73;1.38;;;21.90;48.50;;;;;;5037518;28;20087;-57
2021/06/01 08:40:52;;;;;;;1.67;1.13;;;21.90;48.50;;;;;;5043642;28;20048;-57
2021/06/01 08:43:24;;;;;;;2.67;1.40;;;21.90;48.50;;;;;;5053718;28;20045;-58
2021/06/01 08:45:55;;;;;;;2.10;1.33;;;21.90;48.50;;;;;;5053230;28;20045;-58
2021/06/01 08:48:24;;;;;;;1.45;1.30;;;21.90;48.50;;;;;;5054334;28;20176;-58
2021/06/01 08:50:54;;;;;;;2.92;1.55;;;21.90;48.50;;;;;;5052304;28;20131;-58
2021/06/01 08:53:21;;;;;;;2.20;1.45;;;21.90;48.50;;;;;;5049121;28;20053;-58
2021/06/01 08:55:49;;;;;;;1.77;1.33;;;21.90;48.50;;;;;;5040145;28;20056;-57
2021/06/01 08:58:22;;;;;;;1.90;1.25;;;21.90;48.50;;;;;;5053234;28;20045;-57
2021/06/01 09:00:50;;;;;;;1.73;1.48;;;21.90;48.50;;;;;;5052118;28;20041;-57
2021/06/01 09:03:22;;;;;;;2.50;1.42;;;21.90;48.50;;;;;;5053031;28;20041;-58
2021/06/01 09:06:59;;;;;;;2.03;1.30;;;21.90;48.40;;;;;;5050460;28;20490;-57
2021/06/01 09:11:53;;;;;;;2.90;1.52;;;22.00;48.50;;;;;;5054288;28;20455;-57
2021/06/01 09:14:51;;;;;;;2.00;1.60;;;22.00;48.50;;;;;;5051703;28;20504;-57
2021/06/01 09:23:04;;;;;;;1.65;1.40;;;22.00;48.40;;;;;;5052187;28;20053;-57
2021/06/01 09:26:07;;;;;;;2.55;1.55;;;22.00;48.40;;;;;;5038956;28;20045;-58
2021/06/01 09:28:26;;;;;;;1.90;1.60;;;22.00;48.40;;;;;;5051157;28;20475;-56
2021/06/01 09:30:56;;;;;;;1.60;1.30;;;22.00;48.40;;;;;;5035865;28;20053;-58
2021/06/01 09:33:31;;;;;;;2.15;1.40;;;22.00;48.40;;;;;;5036015;28;20060;-58
2021/06/01 09:36:04;;;;;;;2.22;1.17;;;22.00;48.30;;;;;;5053151;28;20045;-53
2021/06/01 09:38:45;;;;;;;2.25;1.20;;;22.00;48.30;;;;;;5052774;28;20111;-57
2021/06/01 09:41:16;;;;;;;2.40;1.50;;;22.00;48.30;;;;;;5052848;28;20052;-56
2021/06/01 09:43:50;;;;;;;1.48;1.10;;;22.00;48.30;;;;;;5070136;28;20059;-58
2021/06/01 09:46:31;;;;;;;2.05;1.40;;;22.00;48.20;;;;;;5068783;28;20048;-58
2021/06/01 09:49:22;;;;;;;2.22;1.60;;;22.00;48.20;;;;;;5050334;28;20048;-56
2021/06/01 09:51:55;;;;;;;1.95;1.35;;;22.00;48.20;;;;;;5029602;28;20056;-57
2021/06/01 09:54:35;;;;;;;1.87;1.40;;;22.00;48.10;;;;;;5035426;28;20056;-58
2021/06/01 09:57:19;;;;;;;2.28;1.40;;;22.00;48.10;;;;;;5036083;28;20292;-57
2021/06/01 10:00:11;;;;;;;2.50;1.38;;;22.00;48.10;;;;;;5051002;28;20111;-57
2021/06/01 10:02:39;;;;;;;1.73;1.27;;;22.00;48.10;;;;;;5051200;28;20042;-58
2021/06/01 10:05:07;;;;;;;1.60;1.30;;;22.00;48.10;;;;;;5038878;28;20041;-58
2021/06/01 10:07:34;;;;;;;1.60;1.30;;;22.00;48.00;;;;;;5038796;28;20049;-58
2021/06/01 10:10:12;;;;;;;1.90;1.20;;;22.00;48.00;;;;;;5050782;28;20504;-58
2021/06/01 10:12:40;;;;;;;1.30;1.00;;;22.00;48.00;;;;;;5035953;28;20056;-58
2021/06/01 10:15:08;;;;;;;1.67;1.30;;;22.00;47.90;;;;;;5036430;28;20067;-58
2021/06/01 10:17:44;;;;;;;2.00;1.25;;;22.10;48.00;;;;;;5050911;28;20056;-57
2021/06/01 10:20:13;;;;;;;1.90;1.20;;;22.10;48.60;;;;;;5036219;28;20099;-58
2021/06/01 10:22:40;;;;;;;3.00;1.50;;;22.10;47.90;;;;;;5051940;28;20051;-57
2021/06/01 10:25:10;;;;;;;1.77;1.25;;;22.10;47.90;;;;;;5035740;28;20041;-58
2021/06/01 10:27:37;;;;;;;1.80;1.40;;;22.00;47.80;;;;;;5052794;28;20075;-58
2021/06/01 10:30:08;;;;;;;1.70;1.25;;;22.10;47.90;;;;;;5034438;28;20049;-57
2021/06/01 10:32:39;;;;;;;1.83;1.35;;;22.10;47.90;;;;;;5033877;28;20057;-58
2021/06/01 10:35:16;;;;;;;2.42;1.45;;;22.10;47.80;;;;;;5055791;28;20053;-58
2021/06/01 10:52:07;;;;;;;2.05;1.40;;;22.10;47.70;;;;;;4972970;28;20055;-58
2021/06/01 10:54:45;;;;;;;1.60;1.23;;;22.10;47.70;;;;;;4968519;28;20050;-58
2021/06/01 10:57:15;;;;;;;2.22;0.93;;;22.10;47.70;;;;;;4966545;28;20052;-58
2021/06/01 11:02:19;;;;;;;1.52;1.23;;;22.10;47.60;;;;;;4967322;28;20038;-58
2021/06/01 11:05:12;;;;;;;1.88;1.15;;;22.10;47.60;;;;;;4960516;28;20043;-58
2021/06/01 11:07:54;;;;;;;1.95;1.30;;;22.10;47.60;;;;;;4966292;28;20086;-59
2021/06/01 11:10:41;;;;;;;1.58;1.30;;;22.10;47.60;;;;;;4976592;28;20098;-58
2021/06/01 11:13:29;;;;;;;1.63;1.30;;;22.10;47.60;;;;;;4976442;28;20058;-58
2021/06/01 11:15:58;;;;;;;1.98;1.20;;;22.10;47.60;;;;;;4967597;28;20206;-58
2021/06/01 11:18:34;;;;;;;1.45;1.10;;;22.10;47.60;;;;;;4961823;28;20051;-58
2021/06/01 11:21:12;;;;;;;2.53;1.55;;;22.10;47.60;;;;;;4975445;28;20057;-58
2021/06/01 11:35:25;;;;;;;1.77;1.25;;;22.10;47.40;;;;;;5054675;28;20045;-60
2021/06/01 11:40:28;;;;;;;1.40;1.17;;;22.10;47.40;;;;;;5038451;28;20046;-59
2021/06/01 11:43:11;;;;;;;1.40;1.08;;;22.10;47.40;;;;;;5043543;28;20056;-58
2021/06/01 11:45:50;;;;;;;1.60;1.35;;;22.10;47.40;;;;;;5052684;28;20049;-57
2021/06/01 11:51:28;;;;;;;1.75;1.20;;;22.10;47.40;;;;;;5047347;28;20100;-59
2021/06/01 11:53:59;;;;;;;1.42;1.20;;;22.10;47.40;;;;;;5036955;28;20076;-59
2021/06/01 11:56:37;;;;;;;2.60;1.20;;;22.10;47.40;;;;;;5038100;28;20509;-58
2021/06/01 12:13:19;;;;;;;1.45;1.17;;;22.10;47.20;;;;;;4993957;28;20066;-59
2021/06/01 12:18:37;;;;;;;2.05;1.10;;;22.10;47.20;;;;;;4992979;28;20134;-58
2021/06/01 12:21:06;;;;;;;2.97;1.20;;;22.10;47.20;;;;;;4991114;28;20050;-56
2021/06/01 12:23:47;;;;;;;1.80;1.40;;;22.10;47.10;;;;;;4993672;28;20089;-57
2021/06/01 12:31:54;;;;;;;1.85;1.17;;;22.20;47.10;;;;;;4992281;28;20045;-58
2021/06/01 12:34:33;;;;;;;1.00;0.90;;;22.20;47.10;;;;;;4977320;28;20144;-58
2021/06/01 12:45:01;;;;;;;1.75;1.30;;;22.30;47.00;;;;;;4993438;28;20085;-58
2021/06/01 13:20:32;;;;;;;1.98;1.38;;;22.20;46.50;;;;;;5049711;28;20413;-58
2021/06/01 13:32:14;;;;;;;2.17;1.20;;;22.20;46.60;;;;;;5028592;28;20045;-57
2021/06/01 13:40:43;;;;;;;1.70;1.10;;;22.20;46.50;;;;;;5017324;28;20049;-58
2021/06/01 13:46:24;;;;;;;1.38;1.10;;;22.20;46.60;;;;;;5041423;28;20072;-57
2021/06/01 13:49:08;;;;;;;2.42;1.13;;;22.20;46.60;;;;;;5037065;28;20041;-58
2021/06/01 13:52:03;;;;;;;1.02;0.90;;;22.20;46.60;;;;;;5038264;28;20096;-57
2021/06/01 13:59:53;;;;;;;3.85;1.63;;;22.30;46.50;;;;;;5030264;28;20049;-57
2021/06/01 14:15:16;;;;;;;2.70;1.30;;;22.30;46.50;;;;;;5051330;28;20041;-57
2021/06/01 14:19:27;;;;;;;1.63;1.23;;;22.30;46.50;;;;;;5049716;28;20049;-58
2021/06/01 14:30:01;;;;;;;1.95;1.25;;;22.30;46.50;;;;;;5046866;28;20056;-58
2021/06/01 14:55:29;;;;;;;1.85;1.25;;;22.30;46.50;;;;;;4975758;28;20054;-58
2021/06/01 15:50:39;;;;;;;2.30;1.30;;;22.40;46.40;;;;;;5053401;28;20412;-57
2021/06/01 16:29:47;;;;;;;2.58;1.20;;;22.40;46.50;;;;;;5049360;28;20041;-58
2021/06/01 16:43:41;;;;;;;1.38;1.27;;;22.30;46.60;;;;;;5009846;28;20049;-57
2021/06/01 17:03:11;;;;;;;2.25;1.20;;;22.40;46.80;;;;;;5010419;28;20046;-58
2021/06/01 17:13:28;;;;;;;1.45;1.20;;;22.40;46.70;;;;;;5036951;28;20485;-59
2021/06/01 17:15:55;;;;;;;2.95;0.98;;;22.40;46.60;;;;;;5052865;28;20048;-59
2021/06/01 17:21:33;;;;;;;2.42;1.20;;;22.40;46.50;;;;;;5036327;28;20098;-59
2021/06/01 17:24:19;;;;;;;2.70;1.33;;;22.40;46.50;;;;;;5036263;28;20041;-60
2021/06/01 17:34:55;;;;;;;1.67;1.27;;;22.40;46.60;;;;;;5053467;28;20049;-57
2021/06/01 17:37:23;;;;;;;3.30;1.40;;;22.40;46.60;;;;;;5052518;28;20049;-58
2021/06/01 17:39:51;;;;;;;3.22;1.13;;;22.40;46.70;;;;;;5050455;28;20056;-58
2021/06/01 17:42:21;;;;;;;2.22;1.10;;;22.40;46.70;;;;;;5049704;28;20041;-56
2021/06/01 17:44:50;;;;;;;2.30;1.30;;;22.40;46.80;;;;;;5052184;28;20041;-58
2021/06/01 17:47:45;;;;;;;2.65;1.15;;;22.30;46.80;;;;;;5053621;28;20040;-56
2021/06/01 17:50:14;;;;;;;3.35;1.05;;;22.30;46.80;;;;;;5052298;28;20136;-57
2021/06/01 17:52:43;;;;;;;2.00;1.10;;;22.30;46.90;;;;;;5045306;28;20061;-56
2021/06/01 17:55:15;;;;;;;1.98;1.30;;;22.30;46.90;;;;;;5036157;28;20041;-54
2021/06/01 17:57:44;;;;;;;2.92;1.15;;;22.30;47.00;;;;;;5035889;28;20045;-57
2021/06/01 18:00:13;;;;;;;2.63;1.23;;;22.30;47.10;;;;;;5035957;28;20122;-56
2021/06/01 18:02:40;;;;;;;2.30;1.10;;;22.20;47.10;;;;;;5040035;28;20124;-58
2021/06/01 18:05:09;;;;;;;4.35;1.35;;;22.20;47.20;;;;;;5051337;28;20436;-56
2021/06/01 18:08:30;;;;;;;3.58;1.42;;;22.10;47.10;;;;;;5050020;28;20098;-56
2021/06/01 18:36:31;;;;;;;2.50;1.50;;;22.00;48.30;;;;;;5014618;28;20041;-56
2021/06/01 19:11:59;;;;;;;22.65;3.17;;;21.80;48.00;;;;;;4974950;28;20042;-57
2021/06/01 19:51:04;;;;;;;28.70;3.90;;;21.70;48.40;;;;;;5054726;28;20057;-59
2021/06/01 19:53:31;;;;;;;13.70;4.13;;;21.70;48.40;;;;;;5044919;28;20409;-58
2021/06/01 19:55:59;;;;;;;15.13;3.83;;;21.60;48.30;;;;;;5061904;28;20044;-58
2021/06/01 19:58:29;;;;;;;29.65;5.25;;;21.60;48.30;;;;;;5047711;28;20096;-59
2021/06/01 20:00:56;;;;;;;24.08;4.93;;;21.60;48.30;;;;;;5054737;28;20045;-59
2021/06/01 20:03:24;;;;;;;20.65;4.60;;;21.60;48.30;;;;;;5042921;28;20503;-58
2021/06/01 20:05:51;;;;;;;19.70;4.28;;;21.60;48.40;;;;;;5053119;28;20037;-58
2021/06/01 20:08:19;;;;;;;20.00;4.40;;;21.60;48.40;;;;;;5055485;28;20049;-57